Flight Track Log - Related Links

Times and Time Zones

All times are in EDT time to prevent confusion due to time zone crossing. See the SWA1287 flight status page for this flight to view local times or setup timezone preferences in your user account.

Time Position Orientation Groundspeed Altitude Reporting Facility
EDT Latitude Longitude Course Direction KTS MPH feet Rate Location/Type
Sun 11:58:21 AM 37.7333 -122.2667 302° West 177 204 1,500  Level Northern Cal TRACON
Sun 11:59:21 AM 37.7667 -122.3333 302° West 231 266 3,900 2,579 Climbing Northern Cal TRACON
Sun 12:00:15 PM 37.7667 -122.4000 270° West 254 292 6,400 2,888 Climbing Northern Cal TRACON
Sun 12:02:28 PM 37.5975 -122.4239 186° South 310 357 12,900 3,093 Climbing Oakland Center
Sun 12:03:29 PM 37.4906 -122.4108 174° South 320 368 16,400 2,732 Climbing Oakland Center
Sun 12:04:31 PM 37.4342 -122.3183 127° Southeast 358 412 18,500 2,390 Climbing Oakland Center
Sun 12:05:32 PM 37.4150 -122.1864 100° East 384 442 21,300 2,459 Climbing Oakland Center
Sun 12:06:33 PM 37.3869 -122.0561 105° East 389 448 23,500 2,262 Climbing Oakland Center
Sun 12:07:34 PM 37.3569 -121.9178 105° East 407 468 25,900 2,164 Climbing Oakland Center
Sun 12:08:35 PM 37.3239 -121.7633 105° East 416 479 27,900 1,820 Climbing Oakland Center
Sun 12:09:36 PM 37.2931 -121.6189 105° East 427 491 29,600 1,820 Climbing Oakland Center
Sun 12:10:37 PM 37.2606 -121.4719 105° East 436 502 31,600 1,659 Climbing Oakland Center
Sun 12:11:39 PM 37.2306 -121.3281 105° East 430 495 33,000 683 Climbing Oakland Center
Sun 12:12:40 PM 37.1972 -121.1847 106° East 427 491 33,000  Level Oakland Center
Sun 12:13:41 PM 37.1658 -121.0375 105° East 436 502 33,000  Level Oakland Center
Sun 12:14:42 PM 37.1333 -120.8922 106° East 435 501 33,000  Level Oakland Center
Sun 12:15:43 PM 37.1003 -120.7453 106° East 448 516 33,000  Level Oakland Center
Sun 12:16:45 PM 37.0667 -120.6022 106° East 454 522 33,000  Level Oakland Center
Sun 12:17:46 PM 37.0447 -120.4242 99° East 449 517 33,000  Level Oakland Center
Sun 12:18:47 PM 37.0636 -120.2775 81° East 431 496 33,000  Level Oakland Center
Sun 12:19:48 PM 37.0847 -120.1297 80° East 433 498 33,000  Level Oakland Center
Sun 12:20:49 PM 37.1044 -119.9806 81° East 435 501 33,000  Level Oakland Center
Sun 12:21:50 PM 37.1244 -119.8328 80° East 435 501 33,000  Level Oakland Center
Sun 12:22:52 PM 37.1439 -119.6833 81° East 434 499 33,000  Level Oakland Center
Sun 12:23:53 PM 37.1636 -119.5344 81° East 434 499 33,000  Level Oakland Center
Sun 12:24:54 PM 37.1833 -119.3839 81° East 437 503 33,000  Level Oakland Center
Sun 12:25:55 PM 37.2022 -119.2344 81° East 435 501 33,000  Level Oakland Center
Sun 12:26:57 PM 37.2206 -119.0842 81° East 435 501 33,000  Level Oakland Center
Sun 12:27:58 PM 37.2403 -118.9333 81° East 438 504 33,000  Level Oakland Center
Sun 12:28:59 PM 37.2606 -118.7528 82° East 435 501 33,000  Level Oakland Center
Sun 12:30:00 PM 37.2800 -118.6014 81° East 438 504 33,000  Level Oakland Center
Sun 12:31:01 PM 37.2978 -118.4547 81° East 439 505 33,000  Level Oakland Center
Sun 12:32:03 PM 37.3147 -118.3039 82° East 438 504 33,000  Level Oakland Center
Sun 12:33:04 PM 37.3331 -118.1528 81° East 439 505 33,000  Level Oakland Center
Sun 12:34:05 PM 37.3503 -118.0011 82° East 440 506 33,000  Level Oakland Center
Sun 12:35:06 PM 37.3669 -117.8508 82° East 438 504 33,000  Level Oakland Center
Sun 12:36:08 PM 37.3850 -117.7006 81° East 436 502 33,000  Level Oakland Center
Sun 12:37:09 PM 37.4044 -117.5197 82° East 437 503 33,000  Level Oakland Center
Sun 12:38:10 PM 37.4211 -117.3686 82° East 438 504 33,000  Level Oakland Center
Sun 12:39:11 PM 37.3775 -117.2342 112° Southeast 448 516 33,000  Level Oakland Center
Sun 12:40:13 PM 37.2758 -117.1500 147° Southeast 440 506 33,000  Level Oakland Center
Sun 12:40:37 PM 37.2353 -117.1131 144° Southeast 440 506 33,000  Level Los Angeles Center
Sun 12:41:39 PM 37.1342 -117.0261 146° Southeast 441 507 33,000  Level Los Angeles Center
Sun 12:42:15 PM 37.0725 -116.9753 147° Southeast 442 509 33,000  Level Oakland Center
Sun 12:43:16 PM 36.9714 -116.8906 146° Southeast 438 504 33,000  Level Oakland Center
Sun 12:43:44 PM 36.9297 -116.8556 146° Southeast 443 510 33,000  Level Los Angeles Center
Sun 12:44:58 PM 36.8103 -116.7533 146° Southeast 435 501 33,000 -750 Level Los Angeles Center
Sun 12:46:00 PM 36.7289 -116.6436 133° Southeast 434 499 31,300 -2,177 Descending Los Angeles Center
Sun 12:47:02 PM 36.6317 -116.5056 131° Southeast 441 507 28,500 -2,468 Descending Los Angeles Center
Sun 12:48:04 PM 36.5553 -116.3961 131° Southeast 425 489 26,200 -2,256 Descending Los Angeles Center
Sun 12:49:07 PM 36.4767 -116.2844 131° Southeast 405 466 23,800 -2,214 Descending Los Angeles Center
Sun 12:50:52 PM 36.3450 -116.1083 133° Southeast 382 440 20,000 -2,177 Descending Los Angeles Center
Sun 12:51:11 PM 36.3272 -116.0756 124° Southeast 374 430 19,300 -2,073 Descending Los Angeles Center
Sun 12:51:47 PM 36.2833 -116.0189 134° Southeast 371 427 18,100 -1,935 Descending Los Angeles Center
Sun 12:52:13 PM 36.2608 -115.9819 127° Southeast 365 420 17,300 -1,881 Descending Los Angeles Center
Sun 12:52:54 PM 36.2108 -115.9197 135° Southeast 364 419 16,000 -1,355 Descending Los Angeles Center
Sun 12:53:15 PM 36.1933 -115.8806 119° Southeast 356 410 15,900 -98 Descending Los Angeles Center
Sun 12:53:55 PM 36.1717 -115.8153 112° Southeast 302 348 15,900 -387 Level Los Angeles Center
Sun 12:54:17 PM 36.1633 -115.7856 109° East 291 335 15,500 -1,075 Descending Los Angeles Center
Sun 12:55:02 PM 36.1219 -115.7436 141° Southeast 276 318 14,700 -1,238 Descending Los Angeles Center
Sun 12:55:20 PM 36.1006 -115.7347 161° South 271 312 14,200 -532 Descending Los Angeles Center
Sun 12:56:21 PM 36.0533 -115.6772 135° Southeast 266 306 14,000 -485 Descending Los Angeles Center
Sun 12:56:59 PM 36.0472 -115.6161 97° East 270 311 13,400 -677 Descending Los Angeles Center
Sun 12:57:23 PM 36.0469 -115.5994 91° East 272 313 13,300 -787 Descending Los Angeles Center
Sun 12:58:00 PM 36.0408 -115.5253 96° East 261 300 12,600 -973 Descending Los Angeles Center
Sun 12:58:37 PM 36.0394 -115.4889 93° East 255 293 12,100 -1,279 Descending Los Angeles Center
Sun 12:59:01 PM 36.0339 -115.4425 98° East 250 288 11,300 -1,048 Descending Los Angeles Center
Sun 12:59:40 PM 36.0317 -115.3875 93° East 249 287 11,000 -295 Descending Los Angeles Center
Sun 01:00:02 PM 36.0278 -115.3542 98° East 249 287 11,000 -581 Level Los Angeles Center
Sun 01:00:42 PM 36.0256 -115.3033 93° East 248 285 10,400 -764 Descending Los Angeles Center
Sun 01:00:57 PM 36.0228 -115.2814 99° East 245 282 10,300 -667 Descending Los Angeles Center
Sun 01:01:45 PM 36.0208 -115.2242 92° East 243 280 9,700 -991 Descending Los Angeles Center
Sun 01:02:46 PM 36.0158 -115.1531 95° East 227 261 8,500 -977 Descending Los Angeles Center
Sun 01:03:54 PM 36.0083 -115.0656 96° East 209 241 7,600 -960 Descending Los Angeles Center
Sun 01:04:51 PM 36.0061 -114.9983 92° East 209 241 6,500 -756 Descending Los Angeles Center
Sun 01:06:01 PM 36.0061 -114.9172 90° East 205 236 6,000 -339 Descending Los Angeles Center
Sun 01:06:55 PM 36.0458 -114.9008 18° North 208 239 5,800 -776 Descending Los Angeles Center
Sun 01:07:57 PM 36.0742 -114.9494 306° West 196 226 4,500 -919 Descending Los Angeles Center
Sun 01:08:59 PM 36.0744 -115.0189 270° West 199 229 3,900 -794 Descending Los Angeles Center
Sun 01:10:13 PM 36.0742 -115.0894 270° West 187 215 2,700 -832 Descending Los Angeles Center
Sun 01:11:16 PM 36.0739 -115.1428 270° West 154 177 2,000 -667 Descending Los Angeles Center
Sun 01:13:00 PM 36.0667 -115.1500 270° West  Level FlightAware Approximate

Login

Don't have an account? Register now (free) for customized features, flight alerts, and more!